createdAt,value
2018-09-17T00:00:49.825Z,3.50
2018-09-17T00:22:29.824Z,3.70
2018-09-17T00:27:33.885Z,3.80
2018-09-17T00:32:37.725Z,3.60
2018-09-17T00:37:57.387Z,3.90
2018-09-17T00:43:01.528Z,3.60
2018-09-17T00:48:05.409Z,3.90
2018-09-17T00:53:08.981Z,4.20
2018-09-17T00:58:31.379Z,3.30
2018-09-17T01:03:35.252Z,3.60
2018-09-17T01:08:57.496Z,3.27
2018-09-17T01:14:01.486Z,4.20
2018-09-17T01:24:40.733Z,3.73
2018-09-17T01:29:44.534Z,3.90
2018-09-17T01:34:48.545Z,4.57
2018-09-17T01:39:52.306Z,4.20
2018-09-17T01:44:56.106Z,4.07
2018-09-17T01:50:00.182Z,3.77
2018-09-17T01:55:04.267Z,3.60
2018-09-17T02:00:08.288Z,4.33
2018-09-17T02:05:12.015Z,4.30
2018-09-17T02:10:16.263Z,4.30
2018-09-17T02:15:20.679Z,4.47
2018-09-17T02:20:24.650Z,3.83
2018-09-17T02:25:28.391Z,3.90
2018-09-17T02:30:32.808Z,4.30
2018-09-17T02:35:37.308Z,4.27
2018-09-17T02:40:41.447Z,4.20
2018-09-17T02:45:46.161Z,4.70
2018-09-17T02:50:50.593Z,3.80
2018-09-17T02:55:54.700Z,4.07
2018-09-17T03:00:58.427Z,3.70
2018-09-17T03:06:02.974Z,3.77
2018-09-17T03:11:07.411Z,3.80
2018-09-17T03:16:11.857Z,4.00
2018-09-17T03:21:15.974Z,3.87
2018-09-17T03:26:20.391Z,3.77
2018-09-17T03:31:24.673Z,3.50
2018-09-17T03:42:20.814Z,4.13
2018-09-17T03:47:24.782Z,3.60
2018-09-17T03:52:28.467Z,4.03
2018-09-17T03:57:32.380Z,3.93
2018-09-17T04:02:49.352Z,3.80
2018-09-17T04:07:53.466Z,3.63
2018-09-17T04:12:57.223Z,4.00
2018-09-17T04:18:01.146Z,4.00
2018-09-17T04:23:04.922Z,4.37
2018-09-17T04:28:11.148Z,4.47
2018-09-17T04:33:15.063Z,3.90
2018-09-17T04:38:18.661Z,4.20
2018-09-17T04:43:22.769Z,4.10
2018-09-17T04:48:46.923Z,3.90
2018-09-17T04:53:50.982Z,4.03
2018-09-17T04:59:00.456Z,3.70
2018-09-17T05:04:04.336Z,4.20
2018-09-17T05:09:09.938Z,3.70
2018-09-17T05:14:13.839Z,4.03
2018-09-17T05:19:18.042Z,4.10
2018-09-17T05:24:21.640Z,4.07
2018-09-17T05:29:40.468Z,4.27
2018-09-17T05:34:44.489Z,4.00
2018-09-17T05:39:48.211Z,4.13
2018-09-17T05:44:52.653Z,3.90
2018-09-17T05:49:56.779Z,4.50
2018-09-17T05:55:00.821Z,4.80
2018-09-17T06:00:05.861Z,4.20
2018-09-17T06:05:09.592Z,3.90
2018-09-17T06:10:15.606Z,4.50
2018-09-17T06:15:19.568Z,4.20
2018-09-17T06:20:23.360Z,4.73
2018-09-17T06:25:27.244Z,4.73
2018-09-17T06:30:31.380Z,4.97
2018-09-17T06:35:35.399Z,4.70
2018-09-17T06:40:39.091Z,5.43
2018-09-17T06:45:43.126Z,5.80
2018-09-17T06:50:47.612Z,5.50
2018-09-17T06:55:51.263Z,6.17
2018-09-17T07:00:55.305Z,5.70
2018-09-17T07:05:59.392Z,4.70
2018-09-17T07:11:03.815Z,5.40
2018-09-17T07:16:08.329Z,5.57
2018-09-17T07:21:13.040Z,5.70
2018-09-17T07:26:27.508Z,6.37
2018-09-17T07:31:34.797Z,7.07
2018-09-17T07:36:38.815Z,6.90
2018-09-17T07:41:42.557Z,7.90
2018-09-17T07:46:46.147Z,8.03
2018-09-17T07:51:50.148Z,7.03
2018-09-17T07:56:54.179Z,7.20
2018-09-17T08:01:57.838Z,7.17
2018-09-17T08:07:01.580Z,6.93
2018-09-17T08:12:05.374Z,6.23
2018-09-17T08:17:09.687Z,6.13
2018-09-17T08:22:13.321Z,5.20
2018-09-17T08:27:16.881Z,5.50
2018-09-17T08:32:20.992Z,4.90
2018-09-17T08:37:24.899Z,5.57
2018-09-17T08:42:29.011Z,4.80
2018-09-17T08:47:32.830Z,5.00
2018-09-17T08:52:37.038Z,4.80
2018-09-17T08:57:44.842Z,4.67
2018-09-17T09:03:55.952Z,4.80
2018-09-17T09:09:00.216Z,4.53
2018-09-17T09:14:07.357Z,5.67
2018-09-17T09:19:17.429Z,4.40
2018-09-17T09:24:21.362Z,4.83
2018-09-17T09:29:25.441Z,3.57
2018-09-17T09:34:30.040Z,3.50
2018-09-17T09:39:50.431Z,3.50
2018-09-17T09:44:54.531Z,3.90
2018-09-17T09:49:58.716Z,3.73
2018-09-17T09:55:02.918Z,3.20
2018-09-17T10:00:12.397Z,3.20
2018-09-17T10:05:17.158Z,3.03
2018-09-17T10:10:26.344Z,3.10
2018-09-17T10:15:40.132Z,3.33
2018-09-17T10:20:43.992Z,3.33
2018-09-17T10:25:48.136Z,3.33
2018-09-17T10:30:52.156Z,3.00
2018-09-17T10:35:55.741Z,3.07
2018-09-17T10:41:00.083Z,2.80
2018-09-17T10:46:04.072Z,2.87
2018-09-17T10:51:07.734Z,2.47
2018-09-17T10:56:11.612Z,2.67
2018-09-17T11:01:15.919Z,2.47
2018-09-17T11:06:19.573Z,2.23
2018-09-17T11:11:23.979Z,2.10
2018-09-17T11:16:28.119Z,2.00
2018-09-17T11:21:32.142Z,2.13
2018-09-17T11:26:36.665Z,1.80
2018-09-17T11:31:40.904Z,1.80
2018-09-17T11:37:08.556Z,1.70
2018-09-17T11:42:12.411Z,1.70
2018-09-17T11:47:16.880Z,1.47
2018-09-17T11:52:21.318Z,1.80
2018-09-17T11:57:25.132Z,1.97
2018-09-17T12:02:43.859Z,1.83
2018-09-17T12:07:47.878Z,1.80
2018-09-17T12:12:51.869Z,1.83
2018-09-17T12:18:18.679Z,1.80
2018-09-17T12:23:23.111Z,1.70
2018-09-17T12:28:31.659Z,1.70
2018-09-17T12:33:36.208Z,1.90
2018-09-17T12:38:51.312Z,2.10
2018-09-17T12:43:55.683Z,1.83
2018-09-17T12:49:00.933Z,1.60
2018-09-17T12:54:04.721Z,1.53
2018-09-17T12:59:16.115Z,1.90
2018-09-17T13:04:19.889Z,1.67
2018-09-17T13:09:25.114Z,1.70
2018-09-17T13:14:28.929Z,1.70
2018-09-17T13:19:42.543Z,1.57
2018-09-17T13:24:46.683Z,1.90
2018-09-17T13:29:50.548Z,1.93
2018-09-17T13:34:54.759Z,1.77
2018-09-17T13:39:58.462Z,1.70
2018-09-17T13:45:02.619Z,1.70
2018-09-17T13:50:06.931Z,1.83
2018-09-17T13:55:10.494Z,1.70
2018-09-17T14:00:14.395Z,2.10
2018-09-17T14:05:18.245Z,1.67
2018-09-17T14:10:22.514Z,2.20
2018-09-17T14:15:26.339Z,2.10
2018-09-17T14:20:30.076Z,1.87
2018-09-17T14:25:33.956Z,1.87
2018-09-17T14:30:37.965Z,1.70
2018-09-17T14:35:45.670Z,1.97
2018-09-17T14:40:49.696Z,2.20
2018-09-17T14:45:53.544Z,2.10
2018-09-17T14:50:58.332Z,1.97
2018-09-17T14:56:02.208Z,2.10
2018-09-17T15:01:06.341Z,2.00
2018-09-17T15:06:10.901Z,1.87
2018-09-17T15:11:14.604Z,1.87
2018-09-17T15:16:18.451Z,1.93
2018-09-17T15:21:22.823Z,2.00
2018-09-17T15:26:27.033Z,1.87
2018-09-17T15:31:31.512Z,1.70
2018-09-17T15:36:35.462Z,1.97
2018-09-17T15:41:39.618Z,1.83
2018-09-17T15:46:43.694Z,1.67
2018-09-17T15:51:49.689Z,1.87
2018-09-17T15:56:53.690Z,2.23
2018-09-17T16:01:57.493Z,2.37
2018-09-17T16:07:01.561Z,1.70
2018-09-17T16:12:05.262Z,2.00
2018-09-17T16:17:09.214Z,2.10
2018-09-17T16:22:13.000Z,1.53
2018-09-17T16:27:17.256Z,1.63
2018-09-17T16:32:21.469Z,2.33
2018-09-17T16:37:25.392Z,1.97
2018-09-17T16:42:29.445Z,2.20
2018-09-17T16:47:36.722Z,1.90
2018-09-17T16:52:40.527Z,1.70
2018-09-17T16:57:44.353Z,1.60
2018-09-17T17:02:48.220Z,1.87
2018-09-17T17:07:52.607Z,2.27
2018-09-17T17:12:56.800Z,2.03
2018-09-17T17:18:00.891Z,1.83
2018-09-17T17:23:04.663Z,1.90
2018-09-17T17:28:08.803Z,2.17
2018-09-17T17:33:13.287Z,1.83
2018-09-17T17:38:21.604Z,1.83
2018-09-17T17:43:25.620Z,1.80
2018-09-17T17:48:29.922Z,2.07
2018-09-17T17:53:33.914Z,2.07
2018-09-17T17:58:37.642Z,2.10
2018-09-17T18:03:41.808Z,2.27
2018-09-17T18:08:53.456Z,2.20
2018-09-17T18:13:57.140Z,2.10
2018-09-17T18:19:13.325Z,2.70
2018-09-17T18:24:17.036Z,2.20
2018-09-17T18:29:34.511Z,2.50
2018-09-17T18:34:38.180Z,2.90
2018-09-17T18:39:42.682Z,2.80
2018-09-17T18:44:46.802Z,2.80
2018-09-17T18:49:50.589Z,3.37
2018-09-17T18:54:54.601Z,3.00
2018-09-17T18:59:58.506Z,3.57
2018-09-17T19:05:02.285Z,3.33
2018-09-17T19:10:06.187Z,3.83
2018-09-17T19:15:15.204Z,3.63
2018-09-17T19:20:19.098Z,3.73
2018-09-17T19:25:22.715Z,3.90
2018-09-17T19:30:26.419Z,4.47
2018-09-17T19:35:30.404Z,4.33
2018-09-17T19:40:34.535Z,4.13
2018-09-17T19:45:43.754Z,3.97
2018-09-17T19:50:52.754Z,4.30
2018-09-17T19:55:56.778Z,3.50
2018-09-17T20:01:00.676Z,4.07
2018-09-17T20:06:24.974Z,3.87
2018-09-17T20:11:28.896Z,3.70
2018-09-17T20:16:32.741Z,4.00
2018-09-17T20:21:36.567Z,3.90
2018-09-17T20:26:40.515Z,3.80
2018-09-17T20:31:44.281Z,3.73
2018-09-17T20:36:48.203Z,3.70
2018-09-17T20:41:51.968Z,3.80
2018-09-17T20:46:55.881Z,3.70
2018-09-17T20:51:59.838Z,3.93
2018-09-17T20:57:03.838Z,3.67
2018-09-17T21:02:07.741Z,3.57
2018-09-17T21:07:11.729Z,4.07
2018-09-17T21:12:15.719Z,4.00
2018-09-17T21:17:19.572Z,4.10
2018-09-17T21:22:23.398Z,3.90
2018-09-17T21:27:27.446Z,3.77
2018-09-17T21:32:31.168Z,3.63
2018-09-17T21:37:34.954Z,4.27
2018-09-17T21:42:38.843Z,4.03
2018-09-17T21:47:42.800Z,3.93
2018-09-17T21:52:46.608Z,4.17
2018-09-17T21:57:50.135Z,3.93
2018-09-17T22:02:54.199Z,3.67
2018-09-17T22:07:58.258Z,3.93
2018-09-17T22:13:02.255Z,4.57
2018-09-17T22:18:06.317Z,4.43
2018-09-17T22:23:10.255Z,4.17
2018-09-17T22:28:14.356Z,5.00
2018-09-17T22:33:18.145Z,4.13
2018-09-17T22:38:22.012Z,4.63
2018-09-17T22:43:25.931Z,4.10
2018-09-17T22:48:41.424Z,4.33
2018-09-17T22:53:45.185Z,4.77
2018-09-17T23:04:36.004Z,4.77
2018-09-17T23:09:40.388Z,4.07
2018-09-17T23:14:44.320Z,4.70
2018-09-17T23:19:48.551Z,4.63
2018-09-17T23:24:52.292Z,5.10
2018-09-17T23:29:56.240Z,4.63
2018-09-17T23:35:00.193Z,4.20
2018-09-17T23:40:05.182Z,4.63
2018-09-17T23:45:08.945Z,4.17
2018-09-17T23:50:12.767Z,4.73
2018-09-17T23:55:16.730Z,4.23
